createdAt,value
2022-11-04T00:00:33.318Z,218.43
2022-11-04T00:03:02.396Z,237.50
2022-11-04T00:05:31.661Z,213.68
2022-11-04T00:08:19.293Z,229.07
2022-11-04T00:11:20.719Z,223.50
2022-11-04T00:13:49.949Z,220.48
2022-11-04T00:16:37.874Z,226.20
2022-11-04T00:19:06.872Z,212.80
2022-11-04T00:21:54.429Z,207.82
2022-11-04T00:24:42.042Z,200.65
2022-11-04T00:27:30.362Z,196.02
2022-11-04T00:30:00.174Z,207.10
2022-11-04T00:32:47.695Z,230.02
2022-11-04T00:35:17.023Z,212.27
2022-11-04T00:37:46.920Z,219.50
2022-11-04T00:40:18.613Z,211.60
2022-11-04T00:42:47.833Z,211.15
2022-11-04T00:45:16.971Z,216.27
2022-11-04T00:47:46.004Z,213.20
2022-11-04T00:50:15.180Z,215.73
2022-11-04T00:52:44.474Z,203.90
2022-11-04T00:55:13.810Z,197.73
2022-11-04T00:57:42.974Z,203.35
2022-11-04T01:00:17.037Z,193.20
2022-11-04T01:02:50.753Z,200.68
2022-11-04T01:05:23.321Z,210.07
2022-11-04T01:07:54.945Z,201.75
2022-11-04T01:10:26.459Z,202.68
2022-11-04T01:13:02.076Z,210.45
2022-11-04T01:15:33.051Z,192.23
2022-11-04T01:18:03.335Z,213.90
2022-11-04T01:20:35.024Z,191.00
2022-11-04T01:23:04.905Z,185.90
2022-11-04T01:25:34.507Z,195.30
2022-11-04T01:28:03.951Z,186.45
2022-11-04T01:30:33.460Z,202.95
2022-11-04T01:33:02.561Z,205.30
2022-11-04T01:35:33.792Z,204.57
2022-11-04T01:38:03.214Z,203.18
2022-11-04T01:40:37.388Z,207.65
2022-11-04T01:43:18.490Z,206.88
2022-11-04T01:46:00.575Z,221.63
2022-11-04T01:48:35.880Z,200.13
2022-11-04T01:51:06.326Z,214.45
2022-11-04T01:53:41.556Z,206.73
2022-11-04T01:56:15.431Z,213.48
2022-11-04T01:58:57.301Z,222.00
2022-11-04T02:01:27.131Z,229.05
2022-11-04T02:04:19.332Z,194.38
2022-11-04T02:06:50.710Z,214.98
2022-11-04T02:09:21.663Z,228.63
2022-11-04T02:12:09.284Z,214.75
2022-11-04T02:14:39.668Z,230.40
2022-11-04T02:17:21.072Z,224.55
2022-11-04T02:20:09.482Z,256.17
2022-11-04T02:23:04.645Z,260.25
2022-11-04T02:25:52.160Z,241.32
2022-11-04T02:28:58.595Z,254.80
2022-11-04T02:31:43.545Z,249.65
2022-11-04T02:34:28.213Z,383.75
2022-11-04T02:37:22.113Z,393.73
2022-11-04T02:40:22.030Z,453.45
2022-11-04T02:43:03.746Z,420.55
2022-11-04T02:46:01.288Z,381.43
2022-11-04T02:48:42.936Z,345.92
2022-11-04T02:51:34.090Z,357.13
2022-11-04T02:54:17.424Z,377.67
2022-11-04T02:56:52.210Z,349.23
2022-11-04T02:59:28.956Z,329.00
2022-11-04T03:02:03.842Z,340.10
2022-11-04T03:04:40.163Z,319.90
2022-11-04T03:07:14.554Z,305.17
2022-11-04T03:09:51.421Z,287.88
2022-11-04T03:12:27.340Z,309.80
2022-11-04T03:15:06.489Z,297.13
2022-11-04T03:17:48.760Z,325.58
2022-11-04T03:20:27.257Z,320.17
2022-11-04T03:23:00.803Z,306.90
2022-11-04T03:25:39.884Z,303.23
2022-11-04T03:28:23.518Z,317.20
2022-11-04T03:30:58.048Z,280.30
2022-11-04T03:33:57.666Z,297.05
2022-11-04T03:36:29.525Z,283.73
2022-11-04T03:38:59.439Z,288.33
2022-11-04T03:41:57.733Z,296.65
2022-11-04T03:44:27.973Z,279.20
2022-11-04T03:46:57.748Z,289.20
2022-11-04T03:49:28.477Z,293.95
2022-11-04T03:52:00.062Z,263.30
2022-11-04T03:54:34.055Z,244.37
2022-11-04T03:57:22.164Z,253.90
2022-11-04T04:00:11.800Z,244.43
2022-11-04T04:02:50.524Z,227.27
2022-11-04T04:05:31.508Z,227.80
2022-11-04T04:08:10.629Z,225.52
2022-11-04T04:11:10.560Z,230.02
2022-11-04T04:14:05.500Z,239.32
2022-11-04T04:16:37.606Z,237.63
2022-11-04T04:19:13.492Z,248.18
2022-11-04T04:22:02.316Z,257.45
2022-11-04T04:24:56.182Z,221.60
2022-11-04T04:27:35.045Z,240.88
2022-11-04T04:30:10.186Z,247.98
2022-11-04T04:32:54.655Z,243.63
2022-11-04T04:35:45.460Z,231.10
2022-11-04T04:38:46.838Z,204.65
2022-11-04T04:41:42.775Z,196.00
2022-11-04T04:44:45.344Z,194.45
2022-11-04T04:47:22.795Z,153.35
2022-11-04T04:49:54.173Z,159.90
2022-11-04T04:52:26.024Z,160.95
2022-11-04T04:54:55.745Z,171.70
2022-11-04T04:57:25.479Z,165.00
2022-11-04T04:59:55.186Z,169.82
2022-11-04T05:02:25.047Z,166.93
2022-11-04T05:04:54.488Z,174.73
2022-11-04T05:07:24.689Z,174.95
2022-11-04T05:09:54.353Z,188.52
2022-11-04T05:12:24.001Z,168.93
2022-11-04T05:14:53.356Z,185.20
2022-11-04T05:17:22.637Z,183.70
2022-11-04T05:19:52.401Z,190.02
2022-11-04T05:22:22.279Z,159.07
2022-11-04T05:24:53.302Z,166.85
2022-11-04T05:27:22.865Z,159.25
2022-11-04T05:29:52.767Z,152.55
2022-11-04T05:32:22.833Z,162.88
2022-11-04T05:34:52.118Z,147.82
2022-11-04T05:37:21.987Z,147.70
2022-11-04T05:39:56.849Z,158.23
2022-11-04T05:42:26.697Z,146.43
2022-11-04T05:44:56.813Z,146.90
2022-11-04T05:47:27.558Z,133.40
2022-11-04T05:49:57.636Z,127.35
2022-11-04T05:52:27.297Z,129.55
2022-11-04T05:54:57.036Z,130.60
2022-11-04T05:57:26.633Z,129.18
2022-11-04T05:59:56.831Z,120.90
2022-11-04T06:02:26.685Z,113.35
2022-11-04T06:04:56.395Z,133.85
2022-11-04T06:07:26.330Z,126.25
2022-11-04T06:09:55.956Z,116.63
2022-11-04T06:12:25.760Z,125.40
2022-11-04T06:14:55.428Z,116.15
2022-11-04T06:17:25.546Z,119.00
2022-11-04T06:19:54.896Z,147.75
2022-11-04T06:22:24.278Z,116.22
2022-11-04T06:24:54.036Z,119.18
2022-11-04T06:27:23.563Z,105.53
2022-11-04T06:29:55.286Z,118.72
2022-11-04T06:32:36.688Z,102.13
2022-11-04T06:35:13.512Z,91.07
2022-11-04T06:37:43.077Z,108.20
2022-11-04T06:40:12.786Z,99.22
2022-11-04T06:42:44.078Z,98.72
2022-11-04T06:45:14.441Z,110.82
2022-11-04T06:47:44.773Z,103.55
2022-11-04T06:50:15.973Z,95.35
2022-11-04T06:52:46.379Z,112.90
2022-11-04T06:55:15.880Z,108.95
2022-11-04T06:57:45.389Z,101.13
2022-11-04T07:00:15.310Z,112.90
2022-11-04T07:02:44.847Z,105.18
2022-11-04T07:05:16.420Z,116.72
2022-11-04T07:07:46.079Z,120.10
2022-11-04T07:10:15.291Z,104.82
2022-11-04T07:12:44.769Z,113.72
2022-11-04T07:15:14.468Z,124.60
2022-11-04T07:17:45.433Z,117.80
2022-11-04T07:20:14.647Z,111.50
2022-11-04T07:22:44.307Z,126.65
2022-11-04T07:25:13.432Z,123.10
2022-11-04T07:27:43.290Z,134.07
2022-11-04T07:30:13.381Z,135.90
2022-11-04T07:32:42.673Z,116.68
2022-11-04T07:35:11.843Z,130.02
2022-11-04T07:37:41.344Z,142.05
2022-11-04T07:40:11.575Z,138.25
2022-11-04T07:42:40.802Z,130.50
2022-11-04T07:45:11.459Z,132.27
2022-11-04T07:47:40.917Z,113.07
2022-11-04T07:50:11.352Z,126.95
2022-11-04T07:52:41.376Z,133.40
2022-11-04T07:55:11.999Z,107.07
2022-11-04T07:57:42.117Z,107.25
2022-11-04T08:00:12.795Z,119.93
2022-11-04T08:02:43.233Z,118.63
2022-11-04T08:05:13.053Z,85.45
2022-11-04T08:07:42.273Z,92.60
2022-11-04T08:10:12.119Z,78.38
2022-11-04T08:12:41.231Z,73.60
2022-11-04T08:15:10.783Z,68.43
2022-11-04T08:17:40.010Z,66.15
2022-11-04T08:20:10.908Z,63.67
2022-11-04T08:22:41.184Z,56.63
2022-11-04T08:25:14.436Z,64.65
2022-11-04T08:27:44.271Z,66.55
2022-11-04T08:30:14.434Z,72.38
2022-11-04T08:32:45.343Z,66.65
2022-11-04T08:35:15.219Z,59.75
2022-11-04T08:37:44.622Z,70.93
2022-11-04T08:40:13.659Z,69.63
2022-11-04T08:42:42.989Z,51.35
2022-11-04T08:45:12.245Z,74.57
2022-11-04T08:47:41.553Z,62.58
2022-11-04T08:50:10.876Z,58.92
2022-11-04T08:52:41.328Z,60.13
2022-11-04T08:55:11.931Z,60.42
2022-11-04T08:57:41.157Z,51.60
2022-11-04T09:00:10.916Z,51.97
2022-11-04T09:02:41.561Z,63.63
2022-11-04T09:05:12.222Z,55.67
2022-11-04T09:07:42.152Z,54.35
2022-11-04T09:10:12.661Z,57.75
2022-11-04T09:12:44.367Z,61.47
2022-11-04T09:15:14.438Z,57.03
2022-11-04T09:17:45.506Z,56.92
2022-11-04T09:20:18.178Z,54.25
2022-11-04T09:22:51.471Z,54.85
2022-11-04T09:25:21.636Z,55.90
2022-11-04T09:27:50.739Z,49.80
2022-11-04T09:30:20.301Z,70.55
2022-11-04T09:32:53.001Z,52.22
2022-11-04T09:35:23.939Z,50.85
2022-11-04T09:37:54.123Z,52.20
2022-11-04T09:40:26.558Z,50.78
2022-11-04T09:43:34.993Z,51.45
2022-11-04T09:46:05.220Z,40.78
2022-11-04T09:48:48.980Z,44.80
2022-11-04T09:51:47.943Z,49.00
2022-11-04T09:54:28.447Z,47.80
2022-11-04T09:57:02.099Z,49.67
2022-11-04T09:59:38.829Z,71.00
2022-11-04T10:02:40.312Z,68.85
2022-11-04T10:05:26.526Z,58.17
2022-11-04T10:08:26.664Z,45.22
2022-11-04T10:11:06.501Z,84.57
2022-11-04T10:14:23.083Z,52.75
2022-11-04T10:17:01.174Z,60.85
2022-11-04T10:19:56.740Z,46.30
2022-11-04T10:22:34.490Z,58.88
2022-11-04T10:25:23.140Z,61.78
2022-11-04T10:38:12.339Z,88.38
2022-11-04T10:41:18.025Z,64.45
2022-11-04T10:50:57.933Z,67.40
2022-11-04T10:57:08.370Z,54.03
2022-11-04T10:59:56.993Z,62.45
2022-11-04T11:02:39.260Z,78.00
2022-11-04T11:05:23.734Z,55.80
2022-11-04T11:07:56.292Z,77.18
2022-11-04T11:10:36.153Z,70.70
2022-11-04T11:13:11.417Z,58.33
2022-11-04T11:15:43.413Z,65.30
2022-11-04T11:18:18.709Z,54.35
2022-11-04T11:23:42.137Z,63.13
2022-11-04T11:26:20.418Z,51.83
2022-11-04T11:28:59.351Z,74.35
2022-11-04T11:31:39.144Z,64.78
2022-11-04T11:34:23.565Z,54.67
2022-11-04T11:36:56.626Z,73.22
2022-11-04T11:39:30.100Z,57.22
2022-11-04T11:42:05.443Z,58.58
2022-11-04T11:44:50.321Z,60.63
2022-11-04T11:47:31.567Z,56.28
2022-11-04T11:50:34.413Z,65.18
2022-11-04T11:53:16.369Z,87.70
2022-11-04T11:55:55.519Z,74.97
2022-11-04T12:01:43.687Z,54.88
2022-11-04T12:10:29.970Z,60.08
2022-11-04T12:13:23.623Z,55.67
2022-11-04T12:15:59.841Z,61.38
2022-11-04T12:18:44.111Z,59.40
2022-11-04T12:21:22.345Z,65.68
2022-11-04T12:24:03.310Z,68.72
2022-11-04T12:26:47.649Z,57.50
2022-11-04T12:29:30.801Z,62.95
2022-11-04T12:32:06.155Z,69.10
2022-11-04T12:34:56.403Z,68.57
2022-11-04T12:37:50.197Z,71.05
2022-11-04T12:40:19.414Z,65.00
2022-11-04T12:43:18.326Z,56.05
2022-11-04T12:46:02.735Z,65.05
2022-11-04T12:48:57.433Z,69.82
2022-11-04T12:52:03.124Z,63.88
2022-11-04T12:54:32.664Z,105.00
2022-11-04T12:57:22.849Z,264.90
2022-11-04T13:00:03.549Z,103.90
2022-11-04T13:02:47.908Z,111.35
2022-11-04T13:05:45.241Z,93.10
2022-11-04T13:08:30.556Z,85.53
2022-11-04T13:11:26.049Z,79.22
2022-11-04T13:14:09.882Z,82.57
2022-11-04T13:16:46.162Z,72.50
2022-11-04T13:19:42.853Z,88.03
2022-11-04T13:22:19.782Z,76.45
2022-11-04T13:25:12.465Z,87.78
2022-11-04T13:27:49.579Z,90.35
2022-11-04T13:30:25.095Z,94.75
2022-11-04T13:33:13.236Z,88.75
2022-11-04T13:35:59.435Z,83.55
2022-11-04T13:38:43.693Z,95.80
2022-11-04T13:41:27.172Z,91.55
2022-11-04T13:44:02.795Z,103.03
2022-11-04T13:46:36.409Z,111.63
2022-11-04T13:49:08.717Z,112.95
2022-11-04T13:51:45.606Z,109.47
2022-11-04T13:54:23.929Z,107.45
2022-11-04T13:57:06.830Z,93.65
2022-11-04T14:02:14.413Z,96.65
2022-11-04T14:04:45.199Z,115.82
2022-11-04T14:07:20.250Z,108.20
2022-11-04T14:09:55.561Z,98.97
2022-11-04T14:12:34.169Z,106.13
2022-11-04T14:15:12.868Z,107.10
2022-11-04T14:17:45.336Z,103.45
2022-11-04T14:20:26.739Z,108.47
2022-11-04T14:23:02.373Z,109.93
2022-11-04T14:25:33.992Z,108.82
2022-11-04T14:28:04.903Z,121.95
2022-11-04T14:30:34.015Z,114.30
2022-11-04T14:33:08.193Z,98.15
2022-11-04T14:35:38.139Z,103.45
2022-11-04T14:38:29.667Z,107.90
2022-11-04T14:41:16.825Z,115.18
2022-11-04T14:43:48.480Z,121.80
2022-11-04T14:46:24.331Z,122.68
2022-11-04T14:48:57.066Z,109.97
2022-11-04T14:51:41.033Z,142.25
2022-11-04T14:54:14.281Z,136.02
2022-11-04T14:56:43.542Z,142.95
2022-11-04T14:59:24.664Z,131.10
2022-11-04T15:01:54.875Z,140.35
2022-11-04T15:04:33.422Z,131.85
2022-11-04T15:07:05.552Z,136.05
2022-11-04T15:09:41.379Z,137.40
2022-11-04T15:12:38.636Z,154.18
2022-11-04T15:15:34.854Z,121.72
2022-11-04T15:18:17.028Z,135.88
2022-11-04T15:21:02.352Z,144.05
2022-11-04T15:23:36.267Z,137.68
2022-11-04T15:26:08.756Z,147.18
2022-11-04T15:31:13.209Z,149.70
2022-11-04T15:33:49.146Z,138.57
2022-11-04T15:36:26.801Z,138.63
2022-11-04T15:39:02.433Z,142.25
2022-11-04T15:41:51.947Z,149.25
2022-11-04T15:44:30.428Z,153.82
2022-11-04T15:47:10.229Z,159.55
2022-11-04T15:49:43.074Z,168.52
2022-11-04T15:52:23.319Z,171.82
2022-11-04T15:54:55.838Z,161.82
2022-11-04T16:00:23.405Z,180.52
2022-11-04T16:02:59.516Z,170.00
2022-11-04T16:05:35.231Z,175.50
2022-11-04T16:08:24.191Z,176.98
2022-11-04T16:11:14.165Z,182.50
2022-11-04T16:13:45.491Z,176.73
2022-11-04T16:16:28.413Z,179.38
2022-11-04T16:19:00.015Z,185.80
2022-11-04T16:24:18.245Z,185.77
2022-11-04T16:26:49.760Z,193.48
2022-11-04T16:29:29.376Z,183.82
2022-11-04T16:32:21.103Z,178.63
2022-11-04T16:34:56.053Z,180.17
2022-11-04T16:37:27.087Z,192.63
2022-11-04T16:39:56.746Z,167.32
2022-11-04T16:42:26.467Z,186.57
2022-11-04T16:45:02.903Z,183.70
2022-11-04T16:47:35.493Z,194.38
2022-11-04T16:50:11.202Z,183.38
2022-11-04T16:52:44.186Z,186.02
2022-11-04T16:55:16.360Z,187.75
2022-11-04T16:57:50.956Z,188.68
2022-11-04T17:00:27.913Z,190.20
2022-11-04T17:02:57.602Z,192.23
2022-11-04T17:05:27.336Z,185.60
2022-11-04T17:08:03.273Z,193.02
2022-11-04T17:10:37.389Z,193.95
2022-11-04T17:13:07.108Z,192.00
2022-11-04T17:15:36.251Z,201.98
2022-11-04T17:18:05.798Z,199.38
2022-11-04T17:20:35.273Z,187.05
2022-11-04T17:23:05.329Z,188.95
2022-11-04T17:25:34.649Z,195.32
2022-11-04T17:28:04.321Z,204.60
2022-11-04T17:30:34.044Z,209.10
2022-11-04T17:33:07.720Z,194.02
2022-11-04T17:35:39.822Z,211.35
2022-11-04T17:38:09.261Z,211.27
2022-11-04T17:40:58.675Z,208.65
2022-11-04T17:43:46.510Z,211.40
2022-11-04T17:46:35.703Z,218.90
2022-11-04T17:49:15.866Z,232.13
2022-11-04T17:51:47.817Z,217.63
2022-11-04T17:54:18.197Z,236.07
2022-11-04T17:56:47.371Z,239.02
2022-11-04T17:59:17.642Z,229.18
2022-11-04T18:01:47.288Z,232.75
2022-11-04T18:04:20.280Z,231.38
2022-11-04T18:06:51.493Z,236.30
2022-11-04T18:09:21.033Z,224.10
2022-11-04T18:12:09.154Z,228.30
2022-11-04T18:14:38.338Z,239.63
2022-11-04T18:17:07.623Z,249.73
2022-11-04T18:19:37.084Z,246.98
2022-11-04T18:22:06.377Z,232.10
2022-11-04T18:24:35.857Z,245.10
2022-11-04T18:27:05.312Z,235.95
2022-11-04T18:29:35.786Z,235.38
2022-11-04T18:32:05.066Z,241.45
2022-11-04T18:34:34.845Z,257.92
2022-11-04T18:37:04.727Z,250.25
2022-11-04T18:39:34.514Z,252.00
2022-11-04T18:42:03.651Z,238.48
2022-11-04T18:44:32.783Z,235.70
2022-11-04T18:47:02.549Z,229.40
2022-11-04T18:49:31.964Z,240.15
2022-11-04T18:52:01.273Z,233.65
2022-11-04T18:54:30.681Z,230.77
2022-11-04T18:56:59.797Z,228.68
2022-11-04T18:59:28.857Z,230.93
2022-11-04T19:01:58.375Z,234.90
2022-11-04T19:04:27.643Z,233.48
2022-11-04T19:06:57.949Z,238.30
2022-11-04T19:12:36.535Z,221.05
2022-11-04T19:15:06.012Z,219.98
2022-11-04T19:17:39.820Z,220.60
2022-11-04T19:20:12.503Z,208.10
2022-11-04T19:22:42.579Z,212.48
2022-11-04T19:25:12.933Z,209.93
2022-11-04T19:27:43.098Z,209.35
2022-11-04T19:30:12.925Z,210.63
2022-11-04T19:32:41.964Z,205.02
2022-11-04T19:35:11.314Z,211.60
2022-11-04T19:37:40.615Z,207.38
2022-11-04T19:40:12.005Z,205.02
2022-11-04T19:43:00.307Z,214.73
2022-11-04T19:45:31.718Z,219.45
2022-11-04T19:48:01.014Z,233.88
2022-11-04T19:50:30.195Z,235.02
2022-11-04T19:52:59.125Z,228.30
2022-11-04T19:55:29.070Z,235.77
2022-11-04T19:57:58.046Z,237.27
2022-11-04T20:00:27.555Z,244.75
2022-11-04T20:02:57.086Z,251.48
2022-11-04T20:05:27.130Z,253.73
2022-11-04T20:07:57.602Z,246.65
2022-11-04T20:10:30.180Z,264.70
2022-11-04T20:13:17.765Z,260.25
2022-11-04T20:15:47.272Z,274.20
2022-11-04T20:18:16.305Z,283.80
2022-11-04T20:20:46.273Z,282.27
2022-11-04T20:23:15.607Z,280.55
2022-11-04T20:25:44.846Z,275.80
2022-11-04T20:28:14.180Z,295.73
2022-11-04T20:30:43.763Z,285.30
2022-11-04T20:33:12.903Z,296.05
2022-11-04T20:35:42.165Z,300.30
2022-11-04T20:38:11.815Z,315.00
2022-11-04T20:40:41.242Z,304.17
2022-11-04T20:43:10.577Z,318.88
2022-11-04T20:45:40.671Z,325.42
2022-11-04T20:48:10.439Z,327.00
2022-11-04T20:50:39.683Z,309.98
2022-11-04T20:53:08.860Z,324.50
2022-11-04T20:55:41.650Z,335.13
2022-11-04T20:58:11.002Z,321.77
2022-11-04T21:00:40.339Z,322.38
2022-11-04T21:03:09.458Z,310.42
2022-11-04T21:05:38.559Z,322.30
2022-11-04T21:08:07.751Z,322.25
2022-11-04T21:10:38.415Z,324.90
2022-11-04T21:13:07.506Z,335.98
2022-11-04T21:15:42.181Z,333.58
2022-11-04T21:18:13.802Z,328.88
2022-11-04T21:20:44.152Z,324.77
2022-11-04T21:23:15.328Z,323.48
2022-11-04T21:25:58.388Z,328.20
2022-11-04T21:28:28.012Z,326.00
2022-11-04T21:31:02.794Z,333.73
2022-11-04T21:33:31.928Z,351.65
2022-11-04T21:36:08.391Z,341.05
2022-11-04T21:38:37.598Z,349.83
2022-11-04T21:41:11.086Z,342.80
2022-11-04T21:43:40.316Z,361.45
2022-11-04T21:46:14.860Z,346.33
2022-11-04T21:48:44.519Z,367.13
2022-11-04T21:51:16.532Z,341.10
2022-11-04T21:53:46.622Z,361.45
2022-11-04T21:56:22.009Z,357.88
2022-11-04T21:58:53.616Z,350.58
2022-11-04T22:01:25.971Z,354.52
2022-11-04T22:03:57.755Z,349.38
2022-11-04T22:06:33.601Z,348.03
2022-11-04T22:09:06.640Z,351.38
2022-11-04T22:11:40.647Z,348.77
2022-11-04T22:14:10.310Z,346.20
2022-11-04T22:16:40.944Z,339.83
2022-11-04T22:19:14.651Z,338.65
2022-11-04T22:21:46.418Z,337.90
2022-11-04T22:24:18.132Z,344.08
2022-11-04T22:26:48.756Z,339.48
2022-11-04T22:29:18.230Z,349.25
2022-11-04T22:31:47.253Z,342.23
2022-11-04T22:34:16.324Z,360.58
2022-11-04T22:36:45.574Z,352.48
2022-11-04T22:39:17.051Z,344.70
2022-11-04T22:41:47.348Z,349.55
2022-11-04T22:44:16.633Z,360.08
2022-11-04T22:46:45.684Z,344.10
2022-11-04T22:49:15.801Z,353.98
2022-11-04T22:51:45.321Z,362.90
2022-11-04T22:54:14.460Z,357.67
2022-11-04T22:56:43.438Z,367.00
2022-11-04T22:59:13.408Z,342.38
2022-11-04T23:01:43.052Z,348.50
2022-11-04T23:04:13.427Z,351.00
2022-11-04T23:06:42.833Z,349.60
2022-11-04T23:09:14.674Z,354.60
2022-11-04T23:12:02.124Z,363.00
2022-11-04T23:14:46.403Z,347.85
2022-11-04T23:17:43.598Z,359.48
2022-11-04T23:20:16.622Z,336.30
2022-11-04T23:23:04.493Z,349.98
2022-11-04T23:25:33.697Z,346.17
2022-11-04T23:28:21.113Z,337.83
2022-11-04T23:30:53.102Z,340.88
2022-11-04T23:33:42.232Z,351.88
2022-11-04T23:36:30.515Z,345.02
2022-11-04T23:38:59.732Z,337.80
2022-11-04T23:41:47.961Z,349.67
2022-11-04T23:44:37.477Z,345.40
2022-11-04T23:47:24.904Z,351.25
2022-11-04T23:50:12.222Z,351.02
2022-11-04T23:52:59.709Z,350.33
2022-11-04T23:55:47.721Z,365.73
2022-11-04T23:58:35.167Z,353.13
